Time;durP1;ratioP1;P1;durP2;ratioP2;P2;SDS_P1;SDS_P2;PMS_P1;PMS_P2;Temp;Humidity;BMP_temperature;BMP_pressure;BME280_temperature;BME280_humidity;BME280_pressure;Samples;Min_cycle;Max_cycle;Signal;HPM_P1;HPM_P2
2022/03/04 00:01:48;;;;;;;15.30;10.52;;;;;;;;;;4973630;28;20375;-77
2022/03/04 00:04:14;;;;;;;14.85;9.73;;;;;;;;;;4970921;28;20042;-79
2022/03/04 00:06:40;;;;;;;16.88;10.38;;;;;;;;;;4964465;28;20066;-79
2022/03/04 00:09:06;;;;;;;15.68;10.80;;;;;;;;;;4966876;28;20050;-79
2022/03/04 00:11:32;;;;;;;15.45;10.73;;;;;;;;;;4955919;28;20043;-79
2022/03/04 00:13:58;;;;;;;17.77;11.45;;;;;;;;;;4973168;28;20046;-78
2022/03/04 00:16:25;;;;;;;15.80;11.25;;;;;;;;;;4981285;28;20039;-79
2022/03/04 00:19:06;;;;;;;17.23;10.45;;;;;;;;;;4971508;28;20049;-79
2022/03/04 00:21:41;;;;;;;15.77;10.00;;;;;;;;;;4967381;28;20043;-79
2022/03/04 00:24:07;;;;;;;16.13;10.10;;;;;;;;;;4979833;28;20556;-79
2022/03/04 00:26:33;;;;;;;18.10;11.25;;;;;;;;;;4940838;28;20043;-79
2022/03/04 00:28:59;;;;;;;15.80;11.00;;;;;;;;;;4971805;28;20045;-79
2022/03/04 00:31:25;;;;;;;15.77;10.55;;;;;;;;;;4971276;28;20081;-79
2022/03/04 00:33:51;;;;;;;17.13;10.40;;;;;;;;;;4969031;28;20078;-79
2022/03/04 00:36:22;;;;;;;17.40;11.05;;;;;;;;;;4970291;28;20078;-79
2022/03/04 00:38:48;;;;;;;16.85;10.77;;;;;;;;;;4952927;28;20469;-79
2022/03/04 00:41:14;;;;;;;16.63;10.98;;;;;;;;;;4966336;28;20077;-79
2022/03/04 00:43:40;;;;;;;17.88;10.73;;;;;;;;;;4968278;28;20074;-79
2022/03/04 00:46:06;;;;;;;17.33;10.95;;;;;;;;;;4961616;28;20046;-80
2022/03/04 00:48:32;;;;;;;18.23;10.55;;;;;;;;;;4968703;28;20102;-79
2022/03/04 00:50:57;;;;;;;17.85;11.05;;;;;;;;;;4981927;28;20042;-79
2022/03/04 00:53:23;;;;;;;15.07;9.90;;;;;;;;;;4961359;28;20096;-79
2022/03/04 00:55:49;;;;;;;17.13;11.10;;;;;;;;;;4968451;28;20042;-79
2022/03/04 00:58:15;;;;;;;20.05;11.35;;;;;;;;;;4971788;28;20049;-79
2022/03/04 01:00:41;;;;;;;19.40;12.20;;;;;;;;;;4968416;28;20086;-79
2022/03/04 01:03:07;;;;;;;21.60;13.05;;;;;;;;;;4967251;28;20059;-79
2022/03/04 01:05:34;;;;;;;22.52;13.18;;;;;;;;;;4960108;28;20099;-79
2022/03/04 01:08:00;;;;;;;22.92;13.55;;;;;;;;;;4936548;29;20047;-79
2022/03/04 01:10:26;;;;;;;22.52;14.00;;;;;;;;;;4956530;28;20035;-79
2022/03/04 01:12:51;;;;;;;22.42;13.50;;;;;;;;;;4936962;29;20099;-80
2022/03/04 01:15:17;;;;;;;18.98;12.32;;;;;;;;;;4954781;28;20043;-79
2022/03/04 01:17:43;;;;;;;21.60;12.80;;;;;;;;;;4956576;28;20045;-80
2022/03/04 01:20:10;;;;;;;20.23;13.10;;;;;;;;;;4931648;29;20477;-79
2022/03/04 01:22:36;;;;;;;20.92;12.95;;;;;;;;;;4941925;29;20039;-79
2022/03/04 01:25:02;;;;;;;23.10;13.45;;;;;;;;;;4955280;28;20075;-79
2022/03/04 01:27:28;;;;;;;23.25;13.68;;;;;;;;;;4957938;28;20039;-79
2022/03/04 01:29:54;;;;;;;20.00;13.23;;;;;;;;;;4954776;29;20043;-79
2022/03/04 01:32:20;;;;;;;21.52;14.50;;;;;;;;;;4942141;29;20488;-79
2022/03/04 01:34:46;;;;;;;21.90;13.13;;;;;;;;;;4955066;29;20050;-79
2022/03/04 01:37:12;;;;;;;26.23;14.63;;;;;;;;;;4928367;29;20489;-79
2022/03/04 01:39:38;;;;;;;24.08;13.65;;;;;;;;;;4928129;29;20063;-79
2022/03/04 01:42:05;;;;;;;21.95;13.90;;;;;;;;;;4937407;28;20047;-79
2022/03/04 01:44:31;;;;;;;22.30;13.68;;;;;;;;;;4957131;29;20043;-79
2022/03/04 01:46:57;;;;;;;22.90;14.18;;;;;;;;;;4937800;29;20047;-79
2022/03/04 01:49:23;;;;;;;22.65;14.45;;;;;;;;;;4961596;28;20071;-79
2022/03/04 01:51:49;;;;;;;24.65;13.68;;;;;;;;;;4953861;28;20044;-79
2022/03/04 01:54:15;;;;;;;24.45;14.07;;;;;;;;;;4950074;28;20491;-79
2022/03/04 01:56:41;;;;;;;21.27;13.82;;;;;;;;;;4954521;28;20122;-79
2022/03/04 01:59:07;;;;;;;20.83;13.50;;;;;;;;;;4954585;28;20462;-79
2022/03/04 02:01:34;;;;;;;23.65;13.80;;;;;;;;;;4944870;28;20400;-79
2022/03/04 02:04:00;;;;;;;24.73;14.80;;;;;;;;;;4944929;28;20049;-79
2022/03/04 02:06:26;;;;;;;24.73;15.18;;;;;;;;;;4955279;28;20126;-79
2022/03/04 02:08:52;;;;;;;22.27;14.05;;;;;;;;;;4939288;29;20044;-79
2022/03/04 02:11:18;;;;;;;22.25;14.25;;;;;;;;;;4947606;28;20461;-79
2022/03/04 02:13:44;;;;;;;22.30;14.93;;;;;;;;;;4944574;29;20061;-80
2022/03/04 02:16:16;;;;;;;23.75;13.88;;;;;;;;;;4927822;28;20051;-79
2022/03/04 02:18:42;;;;;;;27.42;14.75;;;;;;;;;;4926504;29;20039;-79
2022/03/04 02:21:08;;;;;;;22.88;14.57;;;;;;;;;;4954283;28;20134;-79
2022/03/04 02:23:34;;;;;;;22.02;14.30;;;;;;;;;;4954596;29;20055;-79
2022/03/04 02:26:01;;;;;;;26.20;15.00;;;;;;;;;;4954481;29;20042;-80
2022/03/04 02:28:27;;;;;;;27.20;15.95;;;;;;;;;;4948198;29;20497;-80
2022/03/04 02:30:53;;;;;;;27.00;15.43;;;;;;;;;;4960220;28;20070;-80
2022/03/04 02:33:19;;;;;;;28.73;15.45;;;;;;;;;;4935378;29;20506;-80
2022/03/04 02:35:45;;;;;;;26.25;14.32;;;;;;;;;;4945361;28;20031;-80
2022/03/04 02:38:11;;;;;;;27.77;16.00;;;;;;;;;;4951619;28;20477;-80
2022/03/04 02:40:37;;;;;;;33.15;17.23;;;;;;;;;;4943191;29;20051;-80
2022/03/04 02:43:04;;;;;;;24.92;16.50;;;;;;;;;;4926351;29;20103;-80
2022/03/04 02:45:30;;;;;;;26.50;15.98;;;;;;;;;;4955239;29;20043;-80
2022/03/04 02:47:56;;;;;;;30.27;16.73;;;;;;;;;;4937883;29;20066;-80
2022/03/04 02:50:22;;;;;;;27.05;16.08;;;;;;;;;;4959577;28;20104;-80
2022/03/04 02:52:48;;;;;;;28.92;16.42;;;;;;;;;;4955786;28;20043;-80
2022/03/04 02:55:14;;;;;;;29.33;16.88;;;;;;;;;;4951272;29;20036;-80
2022/03/04 02:57:41;;;;;;;31.05;17.55;;;;;;;;;;4928338;29;20482;-81
2022/03/04 03:00:08;;;;;;;33.75;18.75;;;;;;;;;;4960635;28;20047;-80
2022/03/04 03:02:34;;;;;;;29.95;17.70;;;;;;;;;;4954934;29;20486;-80
2022/03/04 03:05:00;;;;;;;28.63;16.15;;;;;;;;;;4952049;28;20039;-80
2022/03/04 03:07:26;;;;;;;33.75;18.17;;;;;;;;;;4967343;28;20046;-80
2022/03/04 03:09:52;;;;;;;33.03;18.17;;;;;;;;;;4969859;28;20041;-81
2022/03/04 03:12:18;;;;;;;35.20;18.05;;;;;;;;;;4967845;28;20046;-80
2022/03/04 03:14:44;;;;;;;30.25;16.45;;;;;;;;;;4975881;28;20046;-81
2022/03/04 03:17:10;;;;;;;34.38;18.05;;;;;;;;;;4974603;28;20046;-80
2022/03/04 03:19:36;;;;;;;30.95;18.17;;;;;;;;;;4977447;28;20046;-81
2022/03/04 03:22:01;;;;;;;34.65;17.55;;;;;;;;;;4975956;28;20054;-80
2022/03/04 03:24:27;;;;;;;32.08;17.80;;;;;;;;;;4961875;28;20049;-81
2022/03/04 03:26:53;;;;;;;35.28;19.30;;;;;;;;;;4964520;28;20092;-80
2022/03/04 03:29:19;;;;;;;38.75;18.95;;;;;;;;;;4968703;28;20435;-81
2022/03/04 03:31:45;;;;;;;34.15;18.70;;;;;;;;;;4961240;28;20038;-81
2022/03/04 03:34:11;;;;;;;36.70;19.88;;;;;;;;;;4967495;28;20045;-81
2022/03/04 03:36:38;;;;;;;37.80;19.63;;;;;;;;;;4974997;28;20042;-80
2022/03/04 03:39:04;;;;;;;33.03;17.77;;;;;;;;;;4977298;28;20049;-81
2022/03/04 03:41:30;;;;;;;32.95;18.58;;;;;;;;;;4971372;28;20081;-81
2022/03/04 03:43:56;;;;;;;39.78;20.48;;;;;;;;;;4962234;28;20116;-81
2022/03/04 03:46:22;;;;;;;37.75;20.83;;;;;;;;;;4968812;28;20062;-81
2022/03/04 03:48:48;;;;;;;36.35;20.80;;;;;;;;;;4974345;28;20510;-81
2022/03/04 03:51:14;;;;;;;38.17;21.35;;;;;;;;;;4969594;28;20049;-81
2022/03/04 03:53:40;;;;;;;37.60;20.05;;;;;;;;;;4968933;28;20117;-81
2022/03/04 03:56:06;;;;;;;40.30;22.05;;;;;;;;;;4974112;28;20121;-80
2022/03/04 03:58:32;;;;;;;35.83;19.35;;;;;;;;;;4971585;28;20041;-80
2022/03/04 04:00:58;;;;;;;41.03;21.33;;;;;;;;;;4974551;28;20129;-81
2022/03/04 04:03:24;;;;;;;42.75;21.55;;;;;;;;;;4973770;28;20133;-81
2022/03/04 04:05:50;;;;;;;34.17;18.80;;;;;;;;;;4968395;28;20054;-81
2022/03/04 04:08:16;;;;;;;37.53;21.50;;;;;;;;;;4972032;28;20058;-81
2022/03/04 04:10:42;;;;;;;37.70;19.65;;;;;;;;;;4942655;28;20066;-81
2022/03/04 04:13:08;;;;;;;32.65;18.83;;;;;;;;;;4970736;28;20050;-81
2022/03/04 04:15:34;;;;;;;36.38;20.10;;;;;;;;;;4970535;28;20357;-81
2022/03/04 04:18:00;;;;;;;35.55;19.92;;;;;;;;;;4970410;28;20043;-81
2022/03/04 04:20:26;;;;;;;30.17;17.25;;;;;;;;;;4984918;28;20049;-81
2022/03/04 04:22:52;;;;;;;35.38;19.77;;;;;;;;;;4958675;28;20042;-81
2022/03/04 04:25:18;;;;;;;36.65;18.67;;;;;;;;;;4975899;28;20050;-81
2022/03/04 04:27:44;;;;;;;34.45;17.95;;;;;;;;;;4976018;28;20038;-81
2022/03/04 04:30:10;;;;;;;29.95;17.05;;;;;;;;;;4980753;28;20057;-81
2022/03/04 04:32:36;;;;;;;37.15;20.42;;;;;;;;;;4972647;28;20493;-81
2022/03/04 04:35:03;;;;;;;38.90;21.30;;;;;;;;;;4977242;28;20181;-81
2022/03/04 04:37:29;;;;;;;37.13;20.95;;;;;;;;;;4969927;28;20504;-81
2022/03/04 04:39:55;;;;;;;38.22;21.33;;;;;;;;;;4974794;28;20129;-81
2022/03/04 04:42:21;;;;;;;34.75;18.65;;;;;;;;;;4968117;28;20073;-81
2022/03/04 04:44:47;;;;;;;34.72;20.05;;;;;;;;;;4968621;28;20053;-81
2022/03/04 04:47:13;;;;;;;39.30;21.52;;;;;;;;;;4965631;28;22968;-81
2022/03/04 04:49:39;;;;;;;37.33;20.98;;;;;;;;;;4968221;28;20042;-81
2022/03/04 04:52:06;;;;;;;43.17;23.38;;;;;;;;;;4975031;28;20037;-81
2022/03/04 04:54:32;;;;;;;39.05;22.25;;;;;;;;;;4973868;28;20039;-81
2022/03/04 04:56:58;;;;;;;38.97;21.02;;;;;;;;;;4972589;28;20392;-81
2022/03/04 04:59:24;;;;;;;39.83;20.67;;;;;;;;;;4952987;28;20047;-80
2022/03/04 05:01:50;;;;;;;40.78;22.13;;;;;;;;;;4970825;28;20480;-80
2022/03/04 05:04:16;;;;;;;37.80;21.88;;;;;;;;;;4986933;28;20608;-80
2022/03/04 05:06:41;;;;;;;36.33;22.42;;;;;;;;;;4952635;28;20051;-80
2022/03/04 05:09:08;;;;;;;41.60;22.25;;;;;;;;;;4973763;28;20047;-81
2022/03/04 05:11:34;;;;;;;40.38;21.60;;;;;;;;;;4966375;28;20693;-80
2022/03/04 05:14:00;;;;;;;39.42;22.00;;;;;;;;;;4957394;28;20692;-80
2022/03/04 05:16:26;;;;;;;48.75;24.23;;;;;;;;;;4978746;28;20046;-80
2022/03/04 05:18:51;;;;;;;36.35;20.65;;;;;;;;;;4977398;28;20045;-80
2022/03/04 05:21:18;;;;;;;38.67;21.20;;;;;;;;;;4971386;28;20105;-81
2022/03/04 05:23:59;;;;;;;42.92;24.13;;;;;;;;;;4971559;28;20508;-81
2022/03/04 05:26:26;;;;;;;39.10;22.88;;;;;;;;;;4981463;28;20092;-80
2022/03/04 05:28:52;;;;;;;40.90;23.00;;;;;;;;;;4973920;28;20043;-80
2022/03/04 05:31:18;;;;;;;41.03;23.45;;;;;;;;;;4969467;28;20050;-80
2022/03/04 05:33:44;;;;;;;38.85;23.38;;;;;;;;;;4975895;28;20038;-80
2022/03/04 05:36:10;;;;;;;40.05;23.48;;;;;;;;;;4976226;28;20043;-81
2022/03/04 05:38:36;;;;;;;32.72;18.35;;;;;;;;;;4976933;28;20057;-81
2022/03/04 05:41:02;;;;;;;40.92;24.63;;;;;;;;;;4961146;28;20060;-81
2022/03/04 05:43:29;;;;;;;44.88;24.00;;;;;;;;;;4964054;28;20050;-81
2022/03/04 05:45:55;;;;;;;35.47;21.33;;;;;;;;;;4974678;28;20039;-81
2022/03/04 05:48:21;;;;;;;35.70;21.00;;;;;;;;;;4981363;28;20042;-81
2022/03/04 05:50:47;;;;;;;36.35;20.88;;;;;;;;;;4984376;28;20045;-81
2022/03/04 05:53:13;;;;;;;39.22;22.02;;;;;;;;;;4982017;28;20048;-81
2022/03/04 05:55:39;;;;;;;40.60;23.35;;;;;;;;;;4967192;28;20473;-81
2022/03/04 05:58:05;;;;;;;44.95;22.85;;;;;;;;;;4976435;28;20419;-81
2022/03/04 06:00:31;;;;;;;32.28;18.63;;;;;;;;;;4975824;28;20049;-81
2022/03/04 06:02:57;;;;;;;45.58;24.50;;;;;;;;;;4968817;28;20129;-81
2022/03/04 06:05:24;;;;;;;42.13;24.02;;;;;;;;;;4975215;28;20069;-81
2022/03/04 06:07:50;;;;;;;46.50;25.48;;;;;;;;;;4973492;28;20125;-81
2022/03/04 06:10:16;;;;;;;45.28;24.70;;;;;;;;;;4978520;28;20125;-81
2022/03/04 06:12:42;;;;;;;44.90;25.48;;;;;;;;;;4974466;28;20065;-81
2022/03/04 06:15:08;;;;;;;47.15;25.60;;;;;;;;;;4964052;28;20477;-81
2022/03/04 06:17:35;;;;;;;43.58;24.48;;;;;;;;;;4978091;28;20046;-81
2022/03/04 06:20:01;;;;;;;43.90;24.48;;;;;;;;;;4962475;28;20042;-81
2022/03/04 06:22:27;;;;;;;47.83;25.10;;;;;;;;;;4960474;28;20046;-81
2022/03/04 06:24:53;;;;;;;37.58;21.70;;;;;;;;;;4951729;28;20100;-81
2022/03/04 06:27:19;;;;;;;41.40;23.48;;;;;;;;;;4970091;28;20094;-81
2022/03/04 06:29:45;;;;;;;36.65;18.05;;;;;;;;;;4978693;28;20080;-81
2022/03/04 06:32:13;;;;;;;43.05;23.73;;;;;;;;;;4962013;28;20177;-81
2022/03/04 06:34:39;;;;;;;43.28;23.00;;;;;;;;;;4966226;28;20062;-81
2022/03/04 06:37:05;;;;;;;48.47;25.58;;;;;;;;;;4969324;28;20072;-81
2022/03/04 06:39:31;;;;;;;40.85;22.90;;;;;;;;;;4971709;28;20240;-80
2022/03/04 06:41:57;;;;;;;39.58;23.05;;;;;;;;;;4977056;28;20062;-80
2022/03/04 06:44:25;;;;;;;49.08;24.73;;;;;;;;;;4967248;28;20066;-81
2022/03/04 06:46:52;;;;;;;43.90;25.15;;;;;;;;;;4973290;28;20049;-81
2022/03/04 06:49:18;;;;;;;44.35;25.48;;;;;;;;;;4976704;28;20046;-81
2022/03/04 06:51:44;;;;;;;38.88;24.10;;;;;;;;;;4976264;28;20042;-81
2022/03/04 06:54:10;;;;;;;42.20;24.88;;;;;;;;;;4977225;28;20492;-81
2022/03/04 06:56:36;;;;;;;37.83;24.52;;;;;;;;;;4953049;28;20101;-81
2022/03/04 06:59:02;;;;;;;36.53;23.10;;;;;;;;;;4974229;28;20085;-81
2022/03/04 07:01:28;;;;;;;39.58;23.30;;;;;;;;;;4968220;28;20398;-81
2022/03/04 07:03:54;;;;;;;41.10;24.23;;;;;;;;;;4977275;28;20054;-81
2022/03/04 07:06:20;;;;;;;36.88;22.38;;;;;;;;;;4982285;28;20054;-81
2022/03/04 07:08:46;;;;;;;33.55;21.98;;;;;;;;;;4973269;28;20034;-81
2022/03/04 07:11:12;;;;;;;26.08;16.77;;;;;;;;;;4977452;28;20042;-81
2022/03/04 07:13:38;;;;;;;32.45;19.65;;;;;;;;;;4976914;28;20104;-81
2022/03/04 07:16:04;;;;;;;37.45;23.15;;;;;;;;;;4973032;28;20496;-81
2022/03/04 07:18:31;;;;;;;35.65;22.25;;;;;;;;;;4971531;28;20047;-81
2022/03/04 07:20:57;;;;;;;38.13;23.70;;;;;;;;;;4973212;28;20504;-81
2022/03/04 07:23:23;;;;;;;35.60;23.27;;;;;;;;;;4970846;28;20046;-81
2022/03/04 07:25:49;;;;;;;38.65;24.52;;;;;;;;;;4971689;28;20039;-81
2022/03/04 07:28:16;;;;;;;35.90;22.88;;;;;;;;;;4970701;28;20034;-81
2022/03/04 07:30:42;;;;;;;34.03;22.38;;;;;;;;;;4974026;28;20101;-82
2022/03/04 07:33:08;;;;;;;33.33;22.48;;;;;;;;;;4966337;28;20042;-82
2022/03/04 07:35:34;;;;;;;35.67;22.58;;;;;;;;;;4973775;28;20037;-82
2022/03/04 07:38:00;;;;;;;36.53;24.58;;;;;;;;;;4971976;28;20502;-82
2022/03/04 07:40:26;;;;;;;35.40;22.77;;;;;;;;;;4953788;28;20456;-82
2022/03/04 07:42:52;;;;;;;32.65;20.25;;;;;;;;;;4978083;28;20038;-82
2022/03/04 07:45:18;;;;;;;32.58;22.83;;;;;;;;;;4975438;28;20042;-82
2022/03/04 07:47:44;;;;;;;31.90;21.23;;;;;;;;;;4972616;28;20506;-82
2022/03/04 07:50:12;;;;;;;35.92;22.02;;;;;;;;;;4969974;28;20038;-81
2022/03/04 07:52:38;;;;;;;28.92;18.65;;;;;;;;;;4965999;28;20078;-81
2022/03/04 07:55:05;;;;;;;32.60;21.23;;;;;;;;;;4966989;28;20038;-81
2022/03/04 07:57:31;;;;;;;33.22;22.33;;;;;;;;;;4964935;28;20122;-80
2022/03/04 07:59:57;;;;;;;33.10;21.08;;;;;;;;;;4993334;28;20074;-81
2022/03/04 08:02:23;;;;;;;32.85;21.70;;;;;;;;;;4974357;28;20038;-82
2022/03/04 08:04:50;;;;;;;33.17;23.67;;;;;;;;;;4964311;28;20050;-81
2022/03/04 08:07:17;;;;;;;33.67;21.90;;;;;;;;;;4981231;28;20396;-81
2022/03/04 08:09:43;;;;;;;26.20;16.77;;;;;;;;;;4962545;28;20047;-81
2022/03/04 08:12:10;;;;;;;33.65;21.42;;;;;;;;;;4971368;28;20031;-81
2022/03/04 08:14:36;;;;;;;27.42;19.83;;;;;;;;;;4972597;28;20046;-81
2022/03/04 08:17:02;;;;;;;29.98;20.83;;;;;;;;;;4972656;28;20049;-81
2022/03/04 08:19:28;;;;;;;30.98;20.20;;;;;;;;;;4968094;28;20049;-81
2022/03/04 08:21:54;;;;;;;26.77;19.83;;;;;;;;;;4972134;28;20057;-81
2022/03/04 08:24:20;;;;;;;24.52;18.42;;;;;;;;;;4957375;28;20045;-80
2022/03/04 08:26:46;;;;;;;29.33;19.48;;;;;;;;;;4971663;28;20038;-81
2022/03/04 08:29:12;;;;;;;26.67;18.65;;;;;;;;;;4950656;28;20096;-81
2022/03/04 08:31:38;;;;;;;26.05;19.38;;;;;;;;;;4955019;28;20042;-81
2022/03/04 08:34:05;;;;;;;26.38;17.95;;;;;;;;;;4963852;28;20445;-81
2022/03/04 08:36:32;;;;;;;26.40;18.90;;;;;;;;;;4965739;28;20045;-80
2022/03/04 08:39:00;;;;;;;26.27;19.20;;;;;;;;;;4967219;28;20050;-80
2022/03/04 08:41:25;;;;;;;26.27;18.20;;;;;;;;;;4949401;28;20041;-81
2022/03/04 08:43:51;;;;;;;27.10;19.20;;;;;;;;;;4962486;28;20035;-81
2022/03/04 08:46:18;;;;;;;26.02;18.10;;;;;;;;;;4968575;28;20085;-81
2022/03/04 08:48:44;;;;;;;24.08;17.70;;;;;;;;;;4969152;28;20166;-81
2022/03/04 08:51:10;;;;;;;24.85;18.30;;;;;;;;;;4965549;28;20420;-81
2022/03/04 08:53:37;;;;;;;23.80;17.52;;;;;;;;;;4954295;28;20582;-80
2022/03/04 08:56:06;;;;;;;24.38;17.40;;;;;;;;;;4968070;28;20047;-81
2022/03/04 08:58:32;;;;;;;25.02;16.85;;;;;;;;;;4973058;28;20400;-81
2022/03/04 09:00:59;;;;;;;24.77;18.25;;;;;;;;;;4969438;28;20560;-81
2022/03/04 09:03:25;;;;;;;24.33;17.50;;;;;;;;;;4974070;28;20039;-81
2022/03/04 09:05:51;;;;;;;22.45;16.27;;;;;;;;;;4975507;28;20484;-80
2022/03/04 09:08:17;;;;;;;24.90;18.10;;;;;;;;;;4984830;28;20072;-79
2022/03/04 09:10:44;;;;;;;22.92;17.60;;;;;;;;;;4967063;28;20049;-79
2022/03/04 09:13:10;;;;;;;25.45;17.33;;;;;;;;;;4971417;28;20706;-80
2022/03/04 09:15:36;;;;;;;25.70;17.90;;;;;;;;;;4959033;28;20094;-81
2022/03/04 09:18:02;;;;;;;23.80;18.77;;;;;;;;;;4976281;28;20042;-81
2022/03/04 09:20:29;;;;;;;24.05;17.20;;;;;;;;;;4957397;28;20034;-80
2022/03/04 09:22:56;;;;;;;24.27;17.85;;;;;;;;;;4973898;28;20038;-81
2022/03/04 09:25:22;;;;;;;24.77;17.27;;;;;;;;;;4970000;28;20054;-81
2022/03/04 09:27:50;;;;;;;23.70;18.10;;;;;;;;;;4970142;28;20038;-81
2022/03/04 09:30:16;;;;;;;22.73;17.02;;;;;;;;;;4978096;28;20205;-81
2022/03/04 09:32:42;;;;;;;26.13;18.35;;;;;;;;;;4957167;28;20515;-81
2022/03/04 09:35:08;;;;;;;25.52;18.10;;;;;;;;;;4974595;28;20050;-81
2022/03/04 09:37:35;;;;;;;22.70;16.25;;;;;;;;;;4975803;28;20045;-81
2022/03/04 09:40:01;;;;;;;26.00;17.25;;;;;;;;;;4955467;28;20468;-81
2022/03/04 09:42:28;;;;;;;27.40;17.58;;;;;;;;;;4967753;28;20053;-81
2022/03/04 09:44:54;;;;;;;24.38;17.85;;;;;;;;;;4974350;28;20065;-81
2022/03/04 09:47:21;;;;;;;22.42;17.48;;;;;;;;;;4955464;28;20034;-80
2022/03/04 09:49:47;;;;;;;27.08;18.30;;;;;;;;;;4965210;28;20081;-80
2022/03/04 09:52:13;;;;;;;26.25;18.52;;;;;;;;;;4966819;28;20125;-81
2022/03/04 09:54:39;;;;;;;26.63;18.35;;;;;;;;;;4975649;28;20096;-80
2022/03/04 09:57:05;;;;;;;24.42;18.27;;;;;;;;;;4975710;28;20049;-80
2022/03/04 09:59:31;;;;;;;22.05;17.48;;;;;;;;;;4973890;28;20038;-80
2022/03/04 10:02:01;;;;;;;25.75;18.77;;;;;;;;;;4978326;28;20050;-81
2022/03/04 10:04:28;;;;;;;25.90;18.20;;;;;;;;;;4959714;28;20037;-80
2022/03/04 10:06:54;;;;;;;27.30;18.98;;;;;;;;;;4971094;28;20057;-81
2022/03/04 10:09:39;;;;;;;23.13;17.65;;;;;;;;;;4970800;28;20042;-81
2022/03/04 10:12:07;;;;;;;26.58;19.05;;;;;;;;;;4975721;28;20093;-80
2022/03/04 10:14:33;;;;;;;25.90;18.95;;;;;;;;;;4975584;28;20046;-81
2022/03/04 10:16:59;;;;;;;27.33;18.77;;;;;;;;;;4958369;28;20419;-80
2022/03/04 10:19:25;;;;;;;27.17;18.67;;;;;;;;;;4975450;28;20042;-81
2022/03/04 10:22:01;;;;;;;25.27;18.77;;;;;;;;;;4960173;23;20066;-84
2022/03/04 10:24:28;;;;;;;22.80;17.30;;;;;;;;;;4958938;28;20051;-84
2022/03/04 10:26:59;;;;;;;26.38;18.20;;;;;;;;;;4959473;28;20038;-84
2022/03/04 10:29:26;;;;;;;23.48;17.65;;;;;;;;;;4956662;28;20038;-84
2022/03/04 10:32:07;;;;;;;23.45;18.27;;;;;;;;;;4961148;28;20039;-84
2022/03/04 10:34:52;;;;;;;26.52;19.50;;;;;;;;;;4950254;28;20046;-85
2022/03/04 10:37:23;;;;;;;22.33;17.65;;;;;;;;;;4964781;28;20078;-85
2022/03/04 10:40:07;;;;;;;21.67;15.32;;;;;;;;;;4954946;28;20318;-85
2022/03/04 10:42:48;;;;;;;25.05;17.90;;;;;;;;;;4961987;28;20047;-85
2022/03/04 10:45:15;;;;;;;24.75;18.58;;;;;;;;;;4967148;28;20122;-84
2022/03/04 10:47:44;;;;;;;24.88;17.40;;;;;;;;;;4940990;28;20721;-85
2022/03/04 10:50:10;;;;;;;24.75;18.77;;;;;;;;;;4953700;28;20046;-84
2022/03/04 10:52:47;;;;;;;23.83;17.55;;;;;;;;;;4963581;28;20131;-84
2022/03/04 10:55:13;;;;;;;23.83;18.58;;;;;;;;;;4969194;28;20041;-85
2022/03/04 10:57:42;;;;;;;22.40;17.63;;;;;;;;;;4958706;28;20122;-85
2022/03/04 11:00:09;;;;;;;20.85;16.38;;;;;;;;;;4963938;28;20045;-83
2022/03/04 11:02:44;;;;;;;20.73;16.13;;;;;;;;;;4968084;28;20047;-83
2022/03/04 11:05:11;;;;;;;23.27;17.77;;;;;;;;;;4970672;28;20047;-83
2022/03/04 11:07:38;;;;;;;22.38;17.02;;;;;;;;;;4963124;28;20035;-85
2022/03/04 11:10:04;;;;;;;22.25;16.05;;;;;;;;;;4962538;28;20045;-83
2022/03/04 11:12:30;;;;;;;22.13;16.48;;;;;;;;;;4968679;28;20043;-83
2022/03/04 11:14:57;;;;;;;21.90;18.05;;;;;;;;;;4962176;28;20085;-84
2022/03/04 11:17:23;;;;;;;22.83;17.65;;;;;;;;;;4961767;28;20052;-84
2022/03/04 11:19:50;;;;;;;22.40;17.00;;;;;;;;;;4961824;28;20054;-82
2022/03/04 11:22:17;;;;;;;24.50;17.35;;;;;;;;;;4961745;28;20039;-83
2022/03/04 11:24:43;;;;;;;20.95;16.23;;;;;;;;;;4967296;28;20042;-83
2022/03/04 11:27:10;;;;;;;19.30;15.50;;;;;;;;;;4961958;28;20460;-83
2022/03/04 11:29:37;;;;;;;20.48;15.88;;;;;;;;;;4967602;28;20035;-83
2022/03/04 11:32:06;;;;;;;18.83;14.60;;;;;;;;;;4956702;28;20489;-83
2022/03/04 11:34:44;;;;;;;19.38;14.65;;;;;;;;;;4949607;28;20047;-83
2022/03/04 11:37:17;;;;;;;19.30;15.45;;;;;;;;;;4965835;28;20559;-83
2022/03/04 11:40:03;;;;;;;19.45;15.30;;;;;;;;;;4947233;28;20054;-82
2022/03/04 11:42:36;;;;;;;19.65;14.18;;;;;;;;;;4964769;28;20173;-83
2022/03/04 11:45:03;;;;;;;16.48;13.02;;;;;;;;;;4956905;28;20047;-83
2022/03/04 11:47:29;;;;;;;17.95;13.95;;;;;;;;;;4955470;28;20056;-83
2022/03/04 11:49:55;;;;;;;18.52;14.15;;;;;;;;;;4966734;28;20496;-83
2022/03/04 11:52:26;;;;;;;16.80;12.90;;;;;;;;;;4956236;28;20039;-83
2022/03/04 11:54:52;;;;;;;16.83;13.68;;;;;;;;;;4960973;28;20070;-83
2022/03/04 11:57:28;;;;;;;17.15;14.07;;;;;;;;;;4969012;28;20596;-83
2022/03/04 11:59:54;;;;;;;18.48;13.25;;;;;;;;;;4962018;28;20039;-83
2022/03/04 12:02:37;;;;;;;16.08;12.13;;;;;;;;;;4955985;28;20138;-83
2022/03/04 12:05:19;;;;;;;17.05;13.07;;;;;;;;;;4960973;28;20042;-83
2022/03/04 12:07:49;;;;;;;16.65;13.15;;;;;;;;;;4972596;28;20562;-84
2022/03/04 12:10:16;;;;;;;18.77;13.05;;;;;;;;;;4966973;28;20058;-83
2022/03/04 12:13:01;;;;;;;15.75;12.77;;;;;;;;;;4956147;28;20483;-84
2022/03/04 12:15:27;;;;;;;17.15;13.50;;;;;;;;;;4960137;28;20475;-82
2022/03/04 12:17:53;;;;;;;15.77;13.07;;;;;;;;;;4971247;28;20059;-82
2022/03/04 12:20:29;;;;;;;15.40;11.63;;;;;;;;;;4960658;28;20453;-82
2022/03/04 12:22:59;;;;;;;16.13;11.77;;;;;;;;;;4964665;28;20062;-82
2022/03/04 12:25:51;;;;;;;15.80;12.60;;;;;;;;;;4964849;28;20071;-82
2022/03/04 12:28:17;;;;;;;;;;;;;;;;;;4934493;28;20472;-82
2022/03/04 12:30:44;;;;;;;16.75;12.45;;;;;;;;;;4967824;28;19924;-82
2022/03/04 12:33:10;;;;;;;16.17;12.18;;;;;;;;;;4961175;28;20034;-82
2022/03/04 12:35:36;;;;;;;15.63;12.13;;;;;;;;;;4962522;28;20579;-85
2022/03/04 12:38:03;;;;;;;17.52;11.85;;;;;;;;;;4966726;28;20091;-82
2022/03/04 12:40:29;;;;;;;15.60;11.57;;;;;;;;;;4977514;28;20039;-82
2022/03/04 12:42:56;;;;;;;13.95;10.43;;;;;;;;;;4962624;28;20039;-82
2022/03/04 12:45:22;;;;;;;15.40;10.80;;;;;;;;;;4974369;28;20481;-82
2022/03/04 12:47:49;;;;;;;13.70;10.32;;;;;;;;;;4959144;28;20043;-83
2022/03/04 12:50:15;;;;;;;13.55;10.55;;;;;;;;;;4962348;28;20038;-83
2022/03/04 12:52:41;;;;;;;12.07;10.15;;;;;;;;;;4960540;28;20047;-84
2022/03/04 12:55:11;;;;;;;12.90;10.48;;;;;;;;;;4976653;28;20039;-83
2022/03/04 12:57:40;;;;;;;11.98;9.98;;;;;;;;;;4955664;28;20504;-85
2022/03/04 13:00:07;;;;;;;11.00;8.75;;;;;;;;;;4956372;28;20035;-84
2022/03/04 13:02:37;;;;;;;12.95;10.05;;;;;;;;;;4958338;28;20035;-84
2022/03/04 13:05:03;;;;;;;14.32;10.65;;;;;;;;;;4971770;28;20129;-84
2022/03/04 13:07:30;;;;;;;13.05;10.40;;;;;;;;;;4960495;28;20046;-84
2022/03/04 13:09:57;;;;;;;12.38;9.68;;;;;;;;;;4966103;28;20051;-85
2022/03/04 13:12:23;;;;;;;12.82;9.95;;;;;;;;;;4958564;28;20517;-85
2022/03/04 13:14:50;;;;;;;12.15;9.40;;;;;;;;;;4956250;28;20517;-85
2022/03/04 13:17:16;;;;;;;12.38;10.38;;;;;;;;;;4960710;28;20389;-85
2022/03/04 13:19:43;;;;;;;12.38;10.18;;;;;;;;;;4955022;28;20050;-84
2022/03/04 13:22:20;;;;;;;10.85;9.27;;;;;;;;;;4963666;28;20071;-85
2022/03/04 13:24:54;;;;;;;12.88;9.80;;;;;;;;;;4962316;28;20035;-84
2022/03/04 13:27:20;;;;;;;12.57;9.57;;;;;;;;;;4962448;28;20170;-84
2022/03/04 13:29:48;;;;;;;12.68;9.40;;;;;;;;;;4967246;28;20070;-83
2022/03/04 13:32:18;;;;;;;11.88;9.63;;;;;;;;;;4964895;28;20114;-84
2022/03/04 13:34:45;;;;;;;10.48;8.73;;;;;;;;;;4968674;28;20050;-84
2022/03/04 13:37:15;;;;;;;11.57;9.25;;;;;;;;;;4954983;28;20047;-84
2022/03/04 13:39:45;;;;;;;11.90;9.75;;;;;;;;;;4958088;28;20063;-84
2022/03/04 13:42:21;;;;;;;11.25;8.52;;;;;;;;;;4964025;28;20093;-84
2022/03/04 13:45:01;;;;;;;12.68;9.27;;;;;;;;;;4971060;28;20034;-84
2022/03/04 13:48:00;;;;;;;11.57;9.48;;;;;;;;;;4960895;28;20042;-84
2022/03/04 13:50:27;;;;;;;11.70;9.43;;;;;;;;;;4915897;28;20046;-85
2022/03/04 13:52:59;;;;;;;11.30;8.95;;;;;;;;;;4946087;28;20035;-84
2022/03/04 13:55:31;;;;;;;13.73;10.50;;;;;;;;;;4966093;28;20054;-84
2022/03/04 13:58:01;;;;;;;11.63;9.35;;;;;;;;;;4965081;28;20051;-84
2022/03/04 14:00:33;;;;;;;11.13;9.25;;;;;;;;;;4962006;28;20401;-85
2022/03/04 14:03:03;;;;;;;13.32;9.30;;;;;;;;;;4966742;28;20134;-84
2022/03/04 14:05:30;;;;;;;11.70;8.35;;;;;;;;;;4957212;28;20050;-84
2022/03/04 14:08:02;;;;;;;14.00;9.98;;;;;;;;;;4968735;28;20042;-85
2022/03/04 14:10:28;;;;;;;11.10;8.07;;;;;;;;;;4957323;28;20035;-84
2022/03/04 14:12:54;;;;;;;10.02;8.60;;;;;;;;;;4961681;28;20053;-85
2022/03/04 14:15:20;;;;;;;11.98;8.35;;;;;;;;;;4975283;28;20043;-84
2022/03/04 14:17:47;;;;;;;13.63;9.10;;;;;;;;;;4964262;28;20130;-83
2022/03/04 14:20:13;;;;;;;11.55;8.98;;;;;;;;;;4963250;28;20063;-84